createdAt,value
2022-10-20T00:01:07.625Z,99967.91
2022-10-20T00:03:35.142Z,99963.84
2022-10-20T00:06:09.205Z,99956.47
2022-10-20T00:08:37.102Z,99960.97
2022-10-20T00:11:04.295Z,99969.75
2022-10-20T00:13:31.676Z,99966.28
2022-10-20T00:15:59.354Z,99969.50
2022-10-20T00:18:26.646Z,99968.56
2022-10-20T00:20:54.112Z,99962.53
2022-10-20T00:23:21.752Z,99970.91
2022-10-20T00:25:49.427Z,99973.62
2022-10-20T00:28:16.621Z,99978.81
2022-10-20T00:30:44.059Z,99972.72
2022-10-20T00:33:11.206Z,99973.69
2022-10-20T00:35:39.167Z,99975.47
2022-10-20T00:38:06.651Z,99972.91
2022-10-20T00:40:33.877Z,99974.56
2022-10-20T00:43:01.121Z,99974.66
2022-10-20T00:45:28.761Z,99976.38
2022-10-20T00:47:56.458Z,99978.13
2022-10-20T00:50:24.828Z,99973.81
2022-10-20T00:52:52.374Z,99984.16
2022-10-20T00:55:20.347Z,99994.69
2022-10-20T00:57:49.025Z,99984.25
2022-10-20T01:00:16.631Z,99979.00
2022-10-20T01:02:44.338Z,99984.25
2022-10-20T01:05:11.938Z,99984.19
2022-10-20T01:07:39.777Z,99986.88
2022-10-20T01:10:07.234Z,99980.63
2022-10-20T01:12:57.801Z,99982.44
2022-10-20T01:15:44.560Z,99985.97
2022-10-20T01:18:13.366Z,99978.13
2022-10-20T01:21:01.017Z,99985.06
2022-10-20T01:23:31.347Z,99978.09
2022-10-20T01:26:08.431Z,99975.47
2022-10-20T01:28:38.162Z,99971.13
2022-10-20T01:31:08.484Z,99978.16
2022-10-20T01:33:43.126Z,99980.84
2022-10-20T01:36:19.500Z,99974.72
2022-10-20T01:38:46.600Z,99979.94
2022-10-20T01:41:18.398Z,99979.06
2022-10-20T01:43:45.894Z,99984.28
2022-10-20T01:46:13.054Z,99991.25
2022-10-20T01:48:40.551Z,99994.75
2022-10-20T01:51:07.856Z,99987.75
2022-10-20T01:53:35.123Z,99982.53
2022-10-20T01:56:02.592Z,99981.62
2022-10-20T01:58:38.866Z,99991.16
2022-10-20T02:01:11.408Z,99993.81
2022-10-20T02:03:38.864Z,99988.59
2022-10-20T02:06:11.710Z,99981.59
2022-10-20T02:08:45.348Z,99985.03
2022-10-20T02:11:15.043Z,99988.63
2022-10-20T02:13:42.506Z,99990.34
2022-10-20T02:16:11.831Z,99988.66
2022-10-20T02:18:40.763Z,99987.75
2022-10-20T02:21:08.361Z,99986.00
2022-10-20T02:23:37.316Z,99988.69
2022-10-20T02:26:06.332Z,99994.78
2022-10-20T02:28:34.276Z,99996.50
2022-10-20T02:31:02.304Z,100006.03
2022-10-20T02:33:29.538Z,99999.97
2022-10-20T02:35:58.254Z,99999.91
2022-10-20T02:38:25.532Z,100002.50
2022-10-20T02:40:52.667Z,100001.59
2022-10-20T02:43:20.227Z,100004.25
2022-10-20T02:45:47.402Z,100004.22
2022-10-20T02:48:14.599Z,100012.03
2022-10-20T02:50:42.299Z,100011.22
2022-10-20T02:53:09.480Z,100012.97
2022-10-20T02:55:36.629Z,100012.91
2022-10-20T02:58:04.340Z,100012.78
2022-10-20T03:00:32.017Z,100017.28
2022-10-20T03:02:59.708Z,100012.03
2022-10-20T03:05:27.214Z,100014.69
2022-10-20T03:07:54.583Z,100024.22
2022-10-20T03:10:22.019Z,100019.94
2022-10-20T03:12:49.497Z,100018.09
2022-10-20T03:15:16.995Z,100018.97
2022-10-20T03:17:44.166Z,100021.66
2022-10-20T03:20:11.930Z,100019.87
2022-10-20T03:22:39.096Z,100021.50
2022-10-20T03:25:06.399Z,100021.62
2022-10-20T03:27:34.620Z,100024.19
2022-10-20T03:30:02.363Z,100022.34
2022-10-20T03:32:30.693Z,100024.94
2022-10-20T03:34:58.497Z,100022.34
2022-10-20T03:37:25.791Z,100029.31
2022-10-20T03:39:53.078Z,100030.19
2022-10-20T03:42:22.886Z,100031.97
2022-10-20T03:44:50.374Z,100030.16
2022-10-20T03:47:17.577Z,100022.16
2022-10-20T03:49:45.405Z,100028.38
2022-10-20T03:52:12.830Z,100032.75
2022-10-20T03:54:40.969Z,100031.81
2022-10-20T03:57:08.567Z,100026.47
2022-10-20T03:59:35.860Z,100030.87
2022-10-20T04:02:03.334Z,100024.81
2022-10-20T04:04:30.844Z,100027.37
2022-10-20T04:06:58.218Z,100030.19
2022-10-20T04:12:20.925Z,100034.34
2022-10-20T04:15:09.186Z,100029.94
2022-10-20T04:17:36.959Z,100031.72
2022-10-20T04:20:05.567Z,100027.28
2022-10-20T04:22:32.826Z,100027.28
2022-10-20T04:25:00.084Z,100024.66
2022-10-20T04:27:28.170Z,100019.47
2022-10-20T04:29:55.441Z,100028.28
2022-10-20T04:32:22.744Z,100017.78
2022-10-20T04:34:50.196Z,100023.78
2022-10-20T04:37:17.409Z,100030.69
2022-10-20T04:39:44.606Z,100027.28
2022-10-20T04:42:12.388Z,100022.94
2022-10-20T04:44:39.577Z,100019.44
2022-10-20T04:47:06.808Z,100016.84
2022-10-20T04:49:34.557Z,100019.34
2022-10-20T04:52:01.792Z,100017.69
2022-10-20T04:54:29.099Z,100020.06
2022-10-20T04:56:56.681Z,100026.44
2022-10-20T04:59:23.847Z,100022.88
2022-10-20T05:01:51.178Z,100028.16
2022-10-20T05:04:21.538Z,100029.03
2022-10-20T05:06:49.044Z,100030.97
2022-10-20T05:09:16.358Z,100029.84
2022-10-20T05:11:43.861Z,100035.16
2022-10-20T05:14:11.207Z,100046.63
2022-10-20T05:16:38.517Z,100044.78
2022-10-20T05:19:05.968Z,100045.75
2022-10-20T05:21:33.315Z,100052.47
2022-10-20T05:24:04.236Z,100052.62
2022-10-20T05:26:36.996Z,100057.94
2022-10-20T05:29:05.956Z,100057.97
2022-10-20T05:31:36.430Z,100059.72
2022-10-20T05:34:03.612Z,100068.47
2022-10-20T05:36:30.876Z,100070.91
2022-10-20T05:38:58.511Z,100070.97
2022-10-20T05:41:31.214Z,100084.09
2022-10-20T05:44:01.733Z,100087.69
2022-10-20T05:46:30.333Z,100089.28
2022-10-20T05:48:58.451Z,100086.84
2022-10-20T05:51:26.953Z,100098.13
2022-10-20T05:53:57.367Z,100103.06
2022-10-20T05:56:24.834Z,100099.88
2022-10-20T05:58:52.509Z,100106.03
2022-10-20T06:01:23.502Z,100110.22
2022-10-20T06:03:51.781Z,100114.56
2022-10-20T06:06:19.676Z,100111.22
2022-10-20T06:08:47.122Z,100103.25
2022-10-20T06:11:15.019Z,100118.84
2022-10-20T06:13:42.246Z,100121.72
2022-10-20T06:16:13.601Z,100118.91
2022-10-20T06:18:42.861Z,100125.06
2022-10-20T06:21:11.366Z,100128.50
2022-10-20T06:23:38.552Z,100134.56
2022-10-20T06:26:10.420Z,100134.81
2022-10-20T06:28:37.969Z,100141.00
2022-10-20T06:31:11.721Z,100139.25
2022-10-20T06:33:38.916Z,100140.19
2022-10-20T06:36:06.500Z,100147.78
2022-10-20T06:38:33.728Z,100148.03
2022-10-20T06:41:04.580Z,100146.28
2022-10-20T06:43:32.134Z,100148.16
2022-10-20T06:46:03.580Z,100143.56
2022-10-20T06:48:30.809Z,100152.31
2022-10-20T06:51:08.556Z,100150.66
2022-10-20T06:53:36.280Z,100158.94
2022-10-20T06:56:06.371Z,100165.41
2022-10-20T06:58:34.390Z,100163.75
2022-10-20T07:01:11.015Z,100154.78
2022-10-20T07:03:39.067Z,100165.87
2022-10-20T07:06:06.737Z,100167.84
2022-10-20T07:08:34.379Z,100170.88
2022-10-20T07:11:06.101Z,100177.69
2022-10-20T07:13:33.466Z,100184.41
2022-10-20T07:16:00.657Z,100181.31
2022-10-20T07:18:28.449Z,100181.47
2022-10-20T07:20:59.337Z,100182.59
2022-10-20T07:23:27.009Z,100185.81
2022-10-20T07:26:05.026Z,100178.59
2022-10-20T07:28:32.429Z,100186.41
2022-10-20T07:31:07.154Z,100186.41
2022-10-20T07:33:34.721Z,100183.44
2022-10-20T07:36:02.283Z,100194.19
2022-10-20T07:38:29.491Z,100187.00
2022-10-20T07:41:01.785Z,100187.69
2022-10-20T07:43:29.423Z,100191.94
2022-10-20T07:45:56.626Z,100191.25
2022-10-20T07:48:23.802Z,100197.47
2022-10-20T07:50:51.296Z,100203.59
2022-10-20T07:53:18.802Z,100203.44
2022-10-20T07:55:46.154Z,100200.00
2022-10-20T07:58:13.644Z,100199.50
2022-10-20T08:00:41.192Z,100194.75
2022-10-20T08:03:09.255Z,100198.88
2022-10-20T08:05:36.460Z,100202.53
2022-10-20T08:08:04.732Z,100195.75
2022-10-20T08:10:32.262Z,100193.06
2022-10-20T08:12:59.466Z,100188.09
2022-10-20T08:15:26.716Z,100194.75
2022-10-20T08:17:54.152Z,100200.69
2022-10-20T08:20:37.356Z,100204.38
2022-10-20T08:23:04.983Z,100209.19
2022-10-20T08:25:33.156Z,100214.81
2022-10-20T08:28:00.419Z,100213.44
2022-10-20T08:30:28.073Z,100215.03
2022-10-20T08:32:55.432Z,100215.50
2022-10-20T08:35:22.871Z,100214.50
2022-10-20T08:37:50.634Z,100220.88
2022-10-20T08:40:19.743Z,100210.81
2022-10-20T08:42:46.984Z,100210.75
2022-10-20T08:45:15.253Z,100211.38
2022-10-20T08:47:42.447Z,100216.31
2022-10-20T08:50:10.958Z,100220.44
2022-10-20T08:52:39.335Z,100216.59
2022-10-20T08:55:06.923Z,100218.69
2022-10-20T08:57:36.334Z,100217.47
2022-10-20T09:00:15.817Z,100219.06
2022-10-20T09:02:42.994Z,100202.28
2022-10-20T09:05:12.903Z,100213.72
2022-10-20T09:07:42.529Z,100204.03
2022-10-20T09:10:15.474Z,100213.06
2022-10-20T09:12:43.718Z,100209.44
2022-10-20T09:15:11.638Z,100210.72
2022-10-20T09:17:42.725Z,100202.41
2022-10-20T09:20:16.384Z,100201.84
2022-10-20T09:22:43.581Z,100195.69
2022-10-20T09:25:29.343Z,100208.72
2022-10-20T09:27:56.804Z,100206.59
2022-10-20T09:30:30.505Z,100211.66
2022-10-20T09:32:57.975Z,100212.19
2022-10-20T09:35:29.705Z,100212.16
2022-10-20T09:38:15.840Z,100212.28
2022-10-20T09:40:53.880Z,100214.84
2022-10-20T09:43:21.101Z,100212.94
2022-10-20T09:46:08.808Z,100213.75
2022-10-20T09:48:36.949Z,100215.66
2022-10-20T09:51:05.018Z,100210.59
2022-10-20T09:53:32.211Z,100217.59
2022-10-20T09:55:59.378Z,100214.06
2022-10-20T09:58:28.098Z,100208.91
2022-10-20T10:01:02.292Z,100214.91
2022-10-20T10:03:30.346Z,100198.38
2022-10-20T10:06:00.699Z,100205.31
2022-10-20T10:08:30.542Z,100213.22
2022-10-20T10:11:01.273Z,100223.63
2022-10-20T10:13:29.292Z,100221.97
2022-10-20T10:16:15.431Z,100218.31
2022-10-20T10:18:49.240Z,100211.44
2022-10-20T10:21:17.654Z,100208.84
2022-10-20T10:23:52.314Z,100199.28
2022-10-20T10:26:38.026Z,100186.84
2022-10-20T10:29:05.519Z,100190.41
2022-10-20T10:31:32.941Z,100193.09
2022-10-20T10:34:12.240Z,100187.00
2022-10-20T10:36:39.798Z,100193.69
2022-10-20T10:39:09.828Z,100190.38
2022-10-20T10:41:41.723Z,100184.41
2022-10-20T10:44:21.538Z,100178.22
2022-10-20T10:46:55.031Z,100175.63
2022-10-20T10:49:49.022Z,100175.66
2022-10-20T10:52:45.473Z,100167.75
2022-10-20T10:55:30.538Z,100155.37
2022-10-20T10:58:07.306Z,100158.03
2022-10-20T11:00:53.723Z,100158.13
2022-10-20T11:03:28.470Z,100147.59
2022-10-20T11:05:55.921Z,100142.22
2022-10-20T11:08:42.073Z,100128.44
2022-10-20T11:11:22.839Z,100132.19
2022-10-20T11:14:00.752Z,100132.09
2022-10-20T11:16:31.647Z,100133.25
2022-10-20T11:19:01.946Z,100127.28
2022-10-20T11:21:33.681Z,100110.78
2022-10-20T11:24:33.394Z,100120.81
2022-10-20T11:27:11.173Z,100114.72
2022-10-20T11:29:38.345Z,100117.38
2022-10-20T11:32:14.737Z,100103.72
2022-10-20T11:34:41.979Z,100095.63
2022-10-20T11:37:18.572Z,100098.78
2022-10-20T11:39:50.202Z,100084.56
2022-10-20T11:42:24.033Z,100089.22
2022-10-20T11:44:51.222Z,100099.00
2022-10-20T11:47:23.966Z,100090.97
2022-10-20T11:49:51.183Z,100095.56
2022-10-20T11:52:27.078Z,100085.63
2022-10-20T11:54:57.993Z,100071.81
2022-10-20T11:57:32.083Z,100079.84
2022-10-20T12:00:12.002Z,100085.63
2022-10-20T12:02:48.746Z,100081.69
2022-10-20T12:05:15.929Z,100072.59
2022-10-20T12:07:43.370Z,100079.62
2022-10-20T12:10:17.945Z,100080.97
2022-10-20T12:12:45.398Z,100076.09
2022-10-20T12:15:32.826Z,100078.53
2022-10-20T12:18:04.494Z,100076.09
2022-10-20T12:20:31.648Z,100072.34
2022-10-20T12:23:04.601Z,100067.19
2022-10-20T12:25:36.274Z,100070.31
2022-10-20T12:28:25.222Z,100064.25
2022-10-20T12:30:59.966Z,100061.06
2022-10-20T12:33:45.862Z,100048.00
2022-10-20T12:36:19.091Z,100059.84
2022-10-20T12:38:46.618Z,100055.78
2022-10-20T12:41:33.994Z,100049.69
2022-10-20T12:44:07.921Z,100050.31
2022-10-20T12:46:35.819Z,100031.69
2022-10-20T12:49:06.703Z,100040.84
2022-10-20T12:51:41.480Z,100034.50
2022-10-20T12:54:16.303Z,100027.00
2022-10-20T12:56:43.808Z,100024.84
2022-10-20T12:59:23.826Z,100024.88
2022-10-20T13:02:09.949Z,100022.72
2022-10-20T13:04:54.827Z,100022.38
2022-10-20T13:07:41.170Z,100016.78
2022-10-20T13:10:26.870Z,100019.97
2022-10-20T13:13:03.473Z,100017.69
2022-10-20T13:15:30.581Z,100024.91
2022-10-20T13:17:58.035Z,100019.66
2022-10-20T13:20:30.039Z,100026.91
2022-10-20T13:22:57.600Z,100020.13
2022-10-20T13:25:37.866Z,100033.22
2022-10-20T13:28:14.727Z,100025.81
2022-10-20T13:30:51.121Z,100013.94
2022-10-20T13:33:34.011Z,100016.91
2022-10-20T13:36:09.068Z,100018.94
2022-10-20T13:39:05.875Z,100008.91
2022-10-20T13:41:34.452Z,100007.41
2022-10-20T13:44:04.598Z,100012.31
2022-10-20T13:46:42.040Z,100015.56
2022-10-20T13:49:28.481Z,100004.34
2022-10-20T13:51:59.070Z,100003.37
2022-10-20T14:04:40.106Z,100009.03
2022-10-20T14:07:10.271Z,100002.78
2022-10-20T14:09:39.588Z,100001.25
2022-10-20T14:12:13.935Z,99991.44
2022-10-20T14:14:44.813Z,99992.47
2022-10-20T14:17:17.903Z,99992.19
2022-10-20T14:19:46.856Z,99983.75
2022-10-20T14:22:17.229Z,99982.59
2022-10-20T14:24:46.034Z,99989.06
2022-10-20T14:27:14.542Z,99986.31
2022-10-20T14:29:41.875Z,99984.09
2022-10-20T14:32:10.816Z,99988.38
2022-10-20T14:34:52.497Z,99981.22
2022-10-20T14:37:24.386Z,99981.81
2022-10-20T14:39:52.104Z,99975.81
2022-10-20T14:42:23.355Z,99985.03
2022-10-20T14:44:51.062Z,99985.25
2022-10-20T14:47:19.047Z,99973.28
2022-10-20T14:49:51.499Z,99978.56
2022-10-20T14:52:21.878Z,99977.44
2022-10-20T14:54:49.941Z,99981.47
2022-10-20T14:57:17.006Z,99978.13
2022-10-20T14:59:50.463Z,99979.00
2022-10-20T15:02:20.389Z,99977.34
2022-10-20T15:04:48.319Z,99973.91
2022-10-20T15:07:28.821Z,99967.34
2022-10-20T15:10:00.412Z,99972.78
2022-10-20T15:12:32.083Z,99971.91
2022-10-20T15:15:07.889Z,99977.03
2022-10-20T15:17:38.618Z,99961.25
2022-10-20T15:20:33.685Z,99962.69
2022-10-20T15:23:04.232Z,99957.31
2022-10-20T15:25:33.899Z,99961.81
2022-10-20T15:31:41.643Z,99960.69
2022-10-20T15:34:09.138Z,99961.63
2022-10-20T15:36:41.983Z,99957.38
2022-10-20T15:39:09.588Z,99956.37
2022-10-20T15:41:37.279Z,99956.53
2022-10-20T15:44:12.874Z,99961.97
2022-10-20T15:46:44.445Z,99964.59
2022-10-20T15:49:12.003Z,99958.47
2022-10-20T15:51:40.368Z,99950.63
2022-10-20T15:54:07.907Z,99957.75
2022-10-20T15:56:35.491Z,99956.22
2022-10-20T15:59:03.032Z,99965.84
2022-10-20T16:01:30.644Z,99961.53
2022-10-20T16:03:58.565Z,99965.53
2022-10-20T16:06:26.020Z,99962.03
2022-10-20T16:08:53.246Z,99956.94
2022-10-20T16:11:21.725Z,99950.69
2022-10-20T16:13:50.126Z,99957.78
2022-10-20T16:16:19.975Z,99958.62
2022-10-20T16:18:55.657Z,99959.50
2022-10-20T16:21:23.092Z,99952.28
2022-10-20T16:23:50.570Z,99959.53
2022-10-20T16:26:17.771Z,99958.91
2022-10-20T16:28:45.553Z,99953.56
2022-10-20T16:31:16.378Z,99953.69
2022-10-20T16:33:44.016Z,99952.66
2022-10-20T16:36:12.746Z,99952.06
2022-10-20T16:38:40.779Z,99957.09
2022-10-20T16:41:12.867Z,99958.72
2022-10-20T16:43:41.334Z,99963.09
2022-10-20T16:46:08.880Z,99962.34
2022-10-20T16:48:37.824Z,99968.50
2022-10-20T16:51:06.439Z,99965.13
2022-10-20T16:53:33.607Z,99963.37
2022-10-20T16:56:00.822Z,99967.69
2022-10-20T16:58:28.874Z,99957.16
2022-10-20T17:01:00.822Z,99957.19
2022-10-20T17:03:30.003Z,99958.88
2022-10-20T17:05:58.890Z,99955.59
2022-10-20T17:08:27.179Z,99963.34
2022-10-20T17:10:56.004Z,99958.97
2022-10-20T17:13:23.470Z,99959.00
2022-10-20T17:15:51.556Z,99958.06
2022-10-20T17:18:19.761Z,99955.59
2022-10-20T17:20:47.497Z,99956.47
2022-10-20T17:23:15.768Z,99954.81
2022-10-20T17:25:44.306Z,99952.06
2022-10-20T17:28:12.661Z,99952.12
2022-10-20T17:30:44.917Z,99956.41
2022-10-20T17:33:12.893Z,99951.25
2022-10-20T17:35:40.513Z,99952.22
2022-10-20T17:38:08.473Z,99956.56
2022-10-20T17:40:38.309Z,99953.03
2022-10-20T17:43:06.041Z,99953.97
2022-10-20T17:45:37.443Z,99964.50
2022-10-20T17:48:06.284Z,99966.31
2022-10-20T17:50:33.947Z,99963.56
2022-10-20T17:53:04.571Z,99967.09
2022-10-20T17:55:33.692Z,99972.41
2022-10-20T17:58:05.598Z,99974.22
2022-10-20T18:00:54.728Z,99969.91
2022-10-20T18:03:25.552Z,99965.53
2022-10-20T18:05:53.261Z,99962.03
2022-10-20T18:08:21.067Z,99964.66
2022-10-20T18:10:49.435Z,99964.72
2022-10-20T18:13:17.099Z,99962.97
2022-10-20T18:15:46.820Z,99963.91
2022-10-20T18:18:14.452Z,99957.72
2022-10-20T18:20:42.654Z,99956.88
2022-10-20T18:23:10.450Z,99951.59
2022-10-20T18:25:37.737Z,99955.13
2022-10-20T18:28:05.112Z,99953.41
2022-10-20T18:30:33.564Z,99963.97
2022-10-20T18:33:01.167Z,99955.25
2022-10-20T18:35:28.833Z,99952.59
2022-10-20T18:37:57.664Z,99956.16
2022-10-20T18:40:25.232Z,99955.25
2022-10-20T18:42:52.787Z,99956.16
2022-10-20T18:45:23.741Z,99950.88
2022-10-20T18:47:53.647Z,99962.25
2022-10-20T18:50:22.503Z,99962.25
2022-10-20T18:52:50.489Z,99963.22
2022-10-20T18:55:18.232Z,99958.81
2022-10-20T18:57:46.202Z,99961.47
2022-10-20T19:00:14.156Z,99954.44
2022-10-20T19:02:42.060Z,99947.44
2022-10-20T19:05:10.099Z,99951.88
2022-10-20T19:07:38.128Z,99956.25
2022-10-20T19:10:05.687Z,99961.47
2022-10-20T19:12:36.514Z,99960.59
2022-10-20T19:15:04.401Z,99961.47
2022-10-20T19:17:33.669Z,99949.25
2022-10-20T19:20:01.623Z,99963.22
2022-10-20T19:22:29.497Z,99955.34
2022-10-20T19:24:59.305Z,99964.09
2022-10-20T19:27:27.610Z,99958.00
2022-10-20T19:29:56.773Z,99958.03
2022-10-20T19:32:30.818Z,99959.78
2022-10-20T19:34:58.493Z,99948.37
2022-10-20T19:37:26.119Z,99952.75
2022-10-20T19:39:55.660Z,99951.09
2022-10-20T19:42:23.143Z,99952.81
2022-10-20T19:44:50.806Z,99949.31
2022-10-20T19:47:18.650Z,99954.56
2022-10-20T19:49:46.014Z,99953.75
2022-10-20T19:52:14.793Z,99959.88
2022-10-20T19:54:43.072Z,99967.69
2022-10-20T19:57:10.735Z,99961.59
2022-10-20T19:59:39.525Z,99958.09
2022-10-20T20:02:07.506Z,99957.22
2022-10-20T20:04:35.349Z,99959.84
2022-10-20T20:07:03.576Z,99949.41
2022-10-20T20:09:31.263Z,99958.13
2022-10-20T20:11:59.035Z,99958.13
2022-10-20T20:14:26.238Z,99953.75
2022-10-20T20:16:53.814Z,99949.38
2022-10-20T20:19:21.340Z,99959.00
2022-10-20T20:21:49.282Z,99959.00
2022-10-20T20:24:16.731Z,99953.72
2022-10-20T20:26:45.076Z,99957.22
2022-10-20T20:29:12.312Z,99959.88
2022-10-20T20:31:46.802Z,99961.59
2022-10-20T20:34:15.389Z,99972.97
2022-10-20T20:36:42.583Z,99963.34
2022-10-20T20:39:09.785Z,99968.56
2022-10-20T20:41:37.165Z,99963.34
2022-10-20T20:44:08.295Z,99965.13
2022-10-20T20:46:36.289Z,99966.84
2022-10-20T20:49:03.782Z,99960.75
2022-10-20T20:51:33.834Z,99957.25
2022-10-20T20:54:01.559Z,99967.66
2022-10-20T20:56:28.942Z,99965.97
2022-10-20T20:58:56.443Z,99961.59
2022-10-20T21:01:24.460Z,99960.75
2022-10-20T21:03:56.581Z,99960.72
2022-10-20T21:06:33.387Z,99961.59
2022-10-20T21:09:02.048Z,99959.84
2022-10-20T21:11:29.273Z,99963.28
2022-10-20T21:13:56.632Z,99958.91
2022-10-20T21:16:33.993Z,99953.66
2022-10-20T21:19:01.972Z,99965.00
2022-10-20T21:21:33.173Z,99961.53
2022-10-20T21:24:00.810Z,99960.66
2022-10-20T21:26:28.239Z,99965.81
2022-10-20T21:28:55.937Z,99956.25
2022-10-20T21:31:25.075Z,99959.78
2022-10-20T21:33:52.883Z,99965.72
2022-10-20T21:36:20.702Z,99958.41
2022-10-20T21:38:48.049Z,99959.66
2022-10-20T21:41:16.459Z,99963.94
2022-10-20T21:43:44.850Z,99960.66
2022-10-20T21:46:25.553Z,99952.84
2022-10-20T21:48:54.348Z,99950.19
2022-10-20T21:51:25.890Z,99952.84
2022-10-20T21:53:57.061Z,99954.44
2022-10-20T21:56:24.388Z,99962.87
2022-10-20T21:58:51.689Z,99957.03
2022-10-20T22:01:20.286Z,99951.75
2022-10-20T22:03:48.223Z,99944.03
2022-10-20T22:06:16.020Z,99956.69
2022-10-20T22:08:44.109Z,99954.13
2022-10-20T22:11:12.374Z,99955.25
2022-10-20T22:13:39.508Z,99949.09
2022-10-20T22:16:07.122Z,99948.28
2022-10-20T22:18:34.583Z,99954.44
2022-10-20T22:21:02.584Z,99947.44
2022-10-20T22:23:29.803Z,99945.69
2022-10-20T22:25:57.281Z,99943.19
2022-10-20T22:28:24.752Z,99944.03
2022-10-20T22:30:51.941Z,99947.66
2022-10-20T22:33:19.474Z,99957.75
2022-10-20T22:35:46.626Z,99950.69
2022-10-20T22:38:13.965Z,99961.47
2022-10-20T22:40:42.114Z,99946.59
2022-10-20T22:43:09.343Z,99960.56
2022-10-20T22:45:36.499Z,99953.63
2022-10-20T22:48:03.951Z,99957.97
2022-10-20T22:50:31.120Z,99951.00
2022-10-20T22:52:58.278Z,99951.06
2022-10-20T22:55:25.718Z,99956.25
2022-10-20T22:57:52.931Z,99957.09
2022-10-20T23:00:20.346Z,99944.94
2022-10-20T23:02:47.777Z,99953.66
2022-10-20T23:05:14.971Z,99944.09
2022-10-20T23:07:42.099Z,99943.22
2022-10-20T23:10:09.582Z,99940.63
2022-10-20T23:12:37.017Z,99933.63
2022-10-20T23:15:04.755Z,99923.16
2022-10-20T23:17:32.249Z,99922.22
2022-10-20T23:19:59.347Z,99922.25
2022-10-20T23:22:26.499Z,99923.13
2022-10-20T23:24:53.868Z,99926.63
2022-10-20T23:27:21.018Z,99929.19
2022-10-20T23:29:48.124Z,99937.09
2022-10-20T23:32:15.526Z,99934.47
2022-10-20T23:34:42.647Z,99932.75
2022-10-20T23:37:09.810Z,99930.13
2022-10-20T23:39:37.260Z,99931.91
2022-10-20T23:42:07.186Z,99931.87
2022-10-20T23:44:34.679Z,99925.75
2022-10-20T23:47:02.082Z,99928.34
2022-10-20T23:49:29.179Z,99933.28
2022-10-20T23:51:56.302Z,99930.03
2022-10-20T23:54:23.701Z,99924.00
2022-10-20T23:56:50.803Z,99921.34
2022-10-20T23:59:17.934Z,99930.97
